createdAt,value
2019-01-25T00:02:13.113Z,51.00
2019-01-25T00:04:42.252Z,48.97
2019-01-25T00:07:12.261Z,48.83
2019-01-25T00:09:41.446Z,50.67
2019-01-25T00:12:11.522Z,48.43
2019-01-25T00:14:41.551Z,46.33
2019-01-25T00:17:12.052Z,50.17
2019-01-25T00:19:41.929Z,45.83
2019-01-25T00:22:11.468Z,48.43
2019-01-25T00:24:41.145Z,46.60
2019-01-25T00:27:11.213Z,49.23
2019-01-25T00:29:40.473Z,43.17
2019-01-25T00:32:09.820Z,47.43
2019-01-25T00:34:38.881Z,41.80
2019-01-25T00:37:08.160Z,44.13
2019-01-25T00:39:37.365Z,47.80
2019-01-25T00:42:06.868Z,46.13
2019-01-25T00:44:36.321Z,48.83
2019-01-25T00:47:05.861Z,47.20
2019-01-25T00:49:34.959Z,45.67
2019-01-25T00:52:04.301Z,51.17
2019-01-25T00:54:33.656Z,52.80
2019-01-25T00:57:02.744Z,50.50
2019-01-25T00:59:32.067Z,47.80
2019-01-25T01:02:01.367Z,51.17
2019-01-25T01:04:30.317Z,51.37
2019-01-25T01:06:59.337Z,49.43
2019-01-25T01:09:28.436Z,48.50
2019-01-25T01:11:57.621Z,44.40
2019-01-25T01:14:26.941Z,45.63
2019-01-25T01:16:57.170Z,51.13
2019-01-25T01:19:26.696Z,52.97
2019-01-25T01:21:56.250Z,45.97
2019-01-25T01:24:26.749Z,54.73
2019-01-25T01:26:56.740Z,51.00
2019-01-25T01:29:27.394Z,49.77
2019-01-25T01:31:57.001Z,49.03
2019-01-25T01:34:26.714Z,47.00
2019-01-25T01:36:57.197Z,46.43
2019-01-25T01:39:28.045Z,49.07
2019-01-25T01:41:57.307Z,48.90
2019-01-25T01:44:27.060Z,49.43
2019-01-25T01:46:56.750Z,49.70
2019-01-25T01:49:26.168Z,53.13
2019-01-25T01:51:55.757Z,50.53
2019-01-25T01:54:25.075Z,50.20
2019-01-25T01:56:54.237Z,55.67
2019-01-25T01:59:23.950Z,54.40
2019-01-25T02:01:53.522Z,54.30
2019-01-25T02:04:22.792Z,50.17
2019-01-25T02:06:52.113Z,52.90
2019-01-25T02:09:21.135Z,54.73
2019-01-25T02:11:50.554Z,55.50
2019-01-25T02:14:19.577Z,55.00
2019-01-25T02:16:48.968Z,53.27
2019-01-25T02:19:18.198Z,52.90
2019-01-25T02:21:47.685Z,53.43
2019-01-25T02:24:17.456Z,57.97
2019-01-25T02:26:47.165Z,64.40
2019-01-25T02:29:17.207Z,52.17
2019-01-25T02:31:46.850Z,55.80
2019-01-25T02:34:16.767Z,54.93
2019-01-25T02:36:47.209Z,53.40
2019-01-25T02:39:17.338Z,52.77
2019-01-25T02:41:46.867Z,56.23
2019-01-25T02:44:16.182Z,58.80
2019-01-25T02:46:45.681Z,55.03
2019-01-25T02:49:15.805Z,53.00
2019-01-25T02:51:45.258Z,47.10
2019-01-25T02:54:14.621Z,44.70
2019-01-25T02:56:44.230Z,55.23
2019-01-25T02:59:13.578Z,52.10
2019-01-25T03:01:43.456Z,50.63
2019-01-25T03:04:12.786Z,45.50
2019-01-25T03:06:42.168Z,47.67
2019-01-25T03:09:11.837Z,46.03
2019-01-25T03:11:41.286Z,45.77
2019-01-25T03:14:12.153Z,42.63
2019-01-25T03:16:41.784Z,42.83
2019-01-25T03:19:12.361Z,48.37
2019-01-25T03:21:41.405Z,44.27
2019-01-25T03:24:10.990Z,41.60
2019-01-25T03:26:40.747Z,43.63
2019-01-25T03:29:10.127Z,44.07
2019-01-25T03:31:39.612Z,39.83
2019-01-25T03:34:09.113Z,37.40
2019-01-25T03:36:38.520Z,35.50
2019-01-25T03:39:09.696Z,36.47
2019-01-25T03:41:38.855Z,36.87
2019-01-25T03:44:08.457Z,39.47
2019-01-25T03:46:37.800Z,31.67
2019-01-25T03:49:07.186Z,34.17
2019-01-25T03:51:36.346Z,39.00
2019-01-25T03:54:05.870Z,37.03
2019-01-25T03:56:35.493Z,33.47
2019-01-25T03:59:04.955Z,32.87
2019-01-25T04:01:34.993Z,34.50
2019-01-25T04:04:04.908Z,31.47
2019-01-25T04:06:34.220Z,34.93
2019-01-25T04:09:04.641Z,29.97
2019-01-25T04:11:33.744Z,31.37
2019-01-25T04:14:03.386Z,30.47
2019-01-25T04:16:32.711Z,32.83
2019-01-25T04:19:02.183Z,30.97
2019-01-25T04:21:31.567Z,29.43
2019-01-25T04:24:01.187Z,30.60
2019-01-25T04:26:31.124Z,29.93
2019-01-25T04:29:03.354Z,32.60
2019-01-25T04:31:33.046Z,31.47
2019-01-25T04:34:02.734Z,29.20
2019-01-25T04:36:32.251Z,27.10
2019-01-25T04:39:01.413Z,30.30
2019-01-25T04:41:31.134Z,28.20
2019-01-25T04:44:00.367Z,27.37
2019-01-25T04:46:29.726Z,29.57
2019-01-25T04:48:59.191Z,27.33
2019-01-25T04:51:28.801Z,25.70
2019-01-25T04:53:58.432Z,27.60
2019-01-25T04:56:27.557Z,26.73
2019-01-25T04:58:57.276Z,27.77
2019-01-25T05:01:26.907Z,27.40
2019-01-25T05:03:55.978Z,31.23
2019-01-25T05:06:25.096Z,27.57
2019-01-25T05:08:55.109Z,28.60
2019-01-25T05:11:24.233Z,24.00
2019-01-25T05:13:53.633Z,29.40
2019-01-25T05:16:22.823Z,26.57
2019-01-25T05:18:52.366Z,27.30
2019-01-25T05:21:23.562Z,28.47
2019-01-25T05:23:52.713Z,25.70
2019-01-25T05:26:21.873Z,28.53
2019-01-25T05:28:52.357Z,26.97
2019-01-25T05:31:24.559Z,28.00
2019-01-25T05:33:56.043Z,27.07
2019-01-25T05:36:25.584Z,24.37
2019-01-25T05:38:54.826Z,23.80
2019-01-25T05:41:28.540Z,27.93
2019-01-25T05:43:55.305Z,26.67
2019-01-25T05:46:24.686Z,26.33
2019-01-25T05:48:55.529Z,27.60
2019-01-25T05:51:33.412Z,26.63
2019-01-25T05:53:56.979Z,26.77
2019-01-25T05:56:26.493Z,26.20
2019-01-25T05:58:56.232Z,25.13
2019-01-25T06:01:26.508Z,25.57
2019-01-25T06:03:55.899Z,26.83
2019-01-25T06:06:25.061Z,25.60
2019-01-25T06:08:54.687Z,23.13
2019-01-25T06:11:24.178Z,27.43
2019-01-25T06:13:53.508Z,25.40
2019-01-25T06:16:23.610Z,27.90
2019-01-25T06:18:53.011Z,27.30
2019-01-25T06:21:22.101Z,30.80
2019-01-25T06:23:54.886Z,26.00
2019-01-25T06:26:24.374Z,27.00
2019-01-25T06:28:53.781Z,30.07
2019-01-25T06:31:23.755Z,27.77
2019-01-25T06:33:53.425Z,30.17
2019-01-25T06:36:22.500Z,25.90
2019-01-25T06:38:52.058Z,30.57
2019-01-25T06:41:24.425Z,30.33
2019-01-25T06:43:53.952Z,26.97
2019-01-25T06:46:24.079Z,27.53
2019-01-25T06:48:53.335Z,21.53
2019-01-25T06:51:23.717Z,25.17
2019-01-25T06:53:55.044Z,26.80
2019-01-25T06:56:25.081Z,30.87
2019-01-25T06:59:18.917Z,30.33
2019-01-25T07:02:06.761Z,29.47
2019-01-25T07:04:37.871Z,32.50
2019-01-25T07:07:12.826Z,29.77
2019-01-25T07:09:42.801Z,28.97
2019-01-25T07:12:14.832Z,31.07
2019-01-25T07:14:44.525Z,32.73
2019-01-25T07:17:18.401Z,31.13
2019-01-25T07:19:48.305Z,29.07
2019-01-25T07:22:18.125Z,32.30
2019-01-25T07:24:48.132Z,27.37
2019-01-25T07:27:17.879Z,26.90
2019-01-25T07:29:47.302Z,33.93
2019-01-25T07:32:17.314Z,30.17
2019-01-25T07:34:46.942Z,30.90
2019-01-25T07:37:16.835Z,27.30
2019-01-25T07:39:48.467Z,31.83
2019-01-25T07:42:17.898Z,22.40
2019-01-25T07:44:50.167Z,37.03
2019-01-25T07:47:23.250Z,32.00
2019-01-25T07:49:54.010Z,31.07
2019-01-25T07:52:35.918Z,28.77
2019-01-25T07:55:07.021Z,27.87
2019-01-25T07:57:37.305Z,31.50
2019-01-25T08:00:07.935Z,28.40
2019-01-25T08:02:37.222Z,29.23
2019-01-25T08:05:07.850Z,28.80
2019-01-25T08:07:38.244Z,32.33
2019-01-25T08:10:13.057Z,27.63
2019-01-25T08:12:43.080Z,29.27
2019-01-25T08:15:18.169Z,32.40
2019-01-25T08:17:48.143Z,30.63
2019-01-25T08:20:18.572Z,29.50
2019-01-25T08:22:48.958Z,29.40
2019-01-25T08:25:18.861Z,29.47
2019-01-25T08:27:50.506Z,31.47
2019-01-25T08:30:23.345Z,32.30
2019-01-25T08:32:53.112Z,31.03
2019-01-25T08:35:23.220Z,33.07
2019-01-25T08:37:52.436Z,35.37
2019-01-25T08:40:23.902Z,31.33
2019-01-25T08:42:54.159Z,30.20
2019-01-25T08:45:27.613Z,34.60
2019-01-25T08:47:57.319Z,32.77
2019-01-25T08:50:27.288Z,32.87
2019-01-25T08:53:00.221Z,37.60
2019-01-25T08:55:31.128Z,34.23
2019-01-25T08:58:00.670Z,30.93
2019-01-25T09:00:32.612Z,37.30
2019-01-25T09:03:03.025Z,32.77
2019-01-25T09:05:32.321Z,33.90
2019-01-25T09:08:04.686Z,31.23
2019-01-25T09:10:36.362Z,34.03
2019-01-25T09:13:07.340Z,27.30
2019-01-25T09:15:37.075Z,32.63
2019-01-25T09:18:08.737Z,33.60
2019-01-25T09:20:40.221Z,29.20
2019-01-25T09:23:09.829Z,32.90
2019-01-25T09:25:42.297Z,38.63
2019-01-25T09:28:13.946Z,32.10
2019-01-25T09:30:43.406Z,34.77
2019-01-25T09:33:13.702Z,28.63
2019-01-25T09:35:43.434Z,29.43
2019-01-25T09:38:12.665Z,32.43
2019-01-25T09:40:41.934Z,31.37
2019-01-25T09:43:11.151Z,31.63
2019-01-25T09:45:40.581Z,37.10
2019-01-25T09:48:10.006Z,34.03
2019-01-25T09:50:41.163Z,35.20
2019-01-25T09:53:10.592Z,39.07
2019-01-25T09:55:40.320Z,32.87
2019-01-25T09:58:12.368Z,34.20
2019-01-25T10:00:45.447Z,38.03
2019-01-25T10:03:14.945Z,35.97
2019-01-25T10:05:44.977Z,39.53
2019-01-25T10:08:14.123Z,39.40
2019-01-25T10:10:45.352Z,38.37
2019-01-25T10:13:14.528Z,29.90
2019-01-25T10:15:44.155Z,35.33
2019-01-25T10:18:13.402Z,35.27
2019-01-25T10:20:45.946Z,37.87
2019-01-25T10:23:14.977Z,37.10
2019-01-25T10:25:44.394Z,35.07
2019-01-25T10:28:14.400Z,30.53
2019-01-25T10:30:43.851Z,34.30
2019-01-25T10:33:13.111Z,32.10
2019-01-25T10:35:42.520Z,32.00
2019-01-25T10:38:12.428Z,37.77
2019-01-25T10:40:41.509Z,35.67
2019-01-25T10:43:14.122Z,34.40
2019-01-25T10:45:55.269Z,35.30
2019-01-25T10:48:25.510Z,30.87
2019-01-25T10:50:54.666Z,33.43
2019-01-25T10:53:25.211Z,32.60
2019-01-25T10:55:54.709Z,33.57
2019-01-25T10:58:24.087Z,35.00
2019-01-25T11:00:53.437Z,38.03
2019-01-25T11:03:23.714Z,38.23
2019-01-25T11:05:52.831Z,39.00
2019-01-25T11:08:22.369Z,32.23
2019-01-25T11:10:51.933Z,33.10
2019-01-25T11:13:21.532Z,30.93
2019-01-25T11:15:50.577Z,38.47
2019-01-25T11:18:19.738Z,37.37
2019-01-25T11:20:49.246Z,30.87
2019-01-25T11:23:19.093Z,37.67
2019-01-25T11:25:48.459Z,35.57
2019-01-25T11:28:18.383Z,31.20
2019-01-25T11:30:47.588Z,32.40
2019-01-25T11:33:17.208Z,31.33
2019-01-25T11:35:47.419Z,35.30
2019-01-25T11:38:16.646Z,31.87
2019-01-25T11:40:46.329Z,30.80
2019-01-25T11:43:16.533Z,32.87
2019-01-25T11:45:45.906Z,32.63
2019-01-25T11:48:15.745Z,32.80
2019-01-25T11:50:44.940Z,32.00
2019-01-25T11:53:14.035Z,33.40
2019-01-25T11:55:43.802Z,31.67
2019-01-25T11:58:12.935Z,31.03
2019-01-25T12:00:45.364Z,30.17
2019-01-25T12:03:14.682Z,27.27
2019-01-25T12:05:43.971Z,30.77
2019-01-25T12:08:15.472Z,28.87
2019-01-25T12:10:44.582Z,30.77
2019-01-25T12:13:16.334Z,29.10
2019-01-25T12:15:45.678Z,31.77
2019-01-25T12:18:14.876Z,29.43
2019-01-25T12:20:44.397Z,27.97
2019-01-25T12:23:13.901Z,26.43
2019-01-25T12:25:43.605Z,33.47
2019-01-25T12:28:13.342Z,28.47
2019-01-25T12:30:43.225Z,25.83
2019-01-25T12:33:12.366Z,30.37
2019-01-25T12:35:43.477Z,25.70
2019-01-25T12:38:12.631Z,27.93
2019-01-25T12:40:42.803Z,26.40
2019-01-25T12:43:12.307Z,26.57
2019-01-25T12:45:43.985Z,22.17
2019-01-25T12:48:14.053Z,22.57
2019-01-25T12:50:50.487Z,26.57
2019-01-25T12:53:21.642Z,23.20
2019-01-25T12:55:51.038Z,22.80
2019-01-25T12:58:20.703Z,24.77
2019-01-25T13:00:52.905Z,21.30
2019-01-25T13:03:22.070Z,25.37
2019-01-25T13:05:51.838Z,26.93
2019-01-25T13:08:26.735Z,25.00
2019-01-25T13:11:00.132Z,25.63
2019-01-25T13:13:31.675Z,23.17
2019-01-25T13:16:11.418Z,23.70
2019-01-25T13:18:41.573Z,23.27
2019-01-25T13:21:13.629Z,23.43
2019-01-25T13:23:59.064Z,26.33
2019-01-25T13:26:29.652Z,25.97
2019-01-25T13:29:02.067Z,25.33
2019-01-25T13:31:34.446Z,28.10
2019-01-25T13:34:08.578Z,28.03
2019-01-25T13:36:42.181Z,24.87
2019-01-25T13:39:11.745Z,23.93
2019-01-25T13:41:43.784Z,26.57
2019-01-25T13:44:14.089Z,26.60
2019-01-25T13:46:43.382Z,23.80
2019-01-25T13:49:12.828Z,29.73
2019-01-25T13:51:42.890Z,26.27
2019-01-25T13:54:12.731Z,23.97
2019-01-25T13:56:42.339Z,23.60
2019-01-25T13:59:11.786Z,19.37
2019-01-25T14:01:41.930Z,22.70
2019-01-25T14:04:11.461Z,27.30
2019-01-25T14:06:40.631Z,26.83
2019-01-25T14:09:10.284Z,21.30
2019-01-25T14:11:39.415Z,27.67
2019-01-25T14:14:08.805Z,24.60
2019-01-25T14:16:37.928Z,26.87
2019-01-25T14:19:07.376Z,23.90
2019-01-25T14:21:36.505Z,25.60
2019-01-25T14:24:05.933Z,29.23
2019-01-25T14:26:35.570Z,24.80
2019-01-25T14:29:04.655Z,28.20
2019-01-25T14:31:34.777Z,28.03
2019-01-25T14:34:04.254Z,29.90
2019-01-25T14:36:34.152Z,27.47
2019-01-25T14:39:05.181Z,27.67
2019-01-25T14:41:35.816Z,24.87
2019-01-25T14:44:05.365Z,31.17
2019-01-25T14:46:34.505Z,27.97
2019-01-25T14:49:03.898Z,29.73
2019-01-25T14:51:33.010Z,28.53
2019-01-25T14:54:02.094Z,28.60
2019-01-25T14:56:31.285Z,28.63
2019-01-25T14:59:02.608Z,27.63
2019-01-25T15:01:32.604Z,26.00
2019-01-25T15:04:01.788Z,25.13
2019-01-25T15:06:31.281Z,28.87
2019-01-25T15:09:00.845Z,27.20
2019-01-25T15:11:30.292Z,17.43
2019-01-25T15:14:02.508Z,19.27
2019-01-25T15:16:31.675Z,17.57
2019-01-25T15:19:01.053Z,18.23
2019-01-25T15:21:30.121Z,18.50
2019-01-25T15:23:59.371Z,19.23
2019-01-25T15:26:29.635Z,18.10
2019-01-25T15:28:58.819Z,13.10
2019-01-25T15:31:28.448Z,17.40
2019-01-25T15:33:57.766Z,12.50
2019-01-25T15:36:27.158Z,17.53
2019-01-25T15:38:56.511Z,14.50
2019-01-25T15:41:25.615Z,18.40
2019-01-25T15:43:55.353Z,14.97
2019-01-25T15:46:24.436Z,14.50
2019-01-25T15:48:54.014Z,18.97
2019-01-25T15:51:23.071Z,17.83
2019-01-25T15:53:52.331Z,14.73
2019-01-25T15:56:21.443Z,14.30
2019-01-25T15:58:50.642Z,16.33
2019-01-25T16:01:21.065Z,14.30
2019-01-25T16:03:50.193Z,18.30
2019-01-25T16:06:19.794Z,14.03
2019-01-25T16:09:08.615Z,14.80
2019-01-25T16:11:38.048Z,14.60
2019-01-25T16:14:07.158Z,15.50
2019-01-25T16:16:36.225Z,16.23
2019-01-25T16:19:05.542Z,17.63
2019-01-25T16:21:35.591Z,17.93
2019-01-25T16:24:05.939Z,16.30
2019-01-25T16:26:35.050Z,18.37
2019-01-25T16:29:05.135Z,15.87
2019-01-25T16:31:35.161Z,14.33
2019-01-25T16:34:08.675Z,16.83
2019-01-25T16:36:38.867Z,16.30
2019-01-25T16:39:09.508Z,18.97
2019-01-25T16:41:40.131Z,15.57
2019-01-25T16:44:09.972Z,13.50
2019-01-25T16:46:39.530Z,16.90
2019-01-25T16:49:11.096Z,17.70
2019-01-25T16:51:41.385Z,16.83
2019-01-25T16:54:10.907Z,17.43
2019-01-25T16:56:39.993Z,16.70
2019-01-25T16:59:09.410Z,17.17
2019-01-25T17:01:41.607Z,19.40
2019-01-25T17:04:10.107Z,15.47
2019-01-25T17:06:40.439Z,18.40
2019-01-25T17:09:10.502Z,19.23
2019-01-25T17:11:40.461Z,16.83
2019-01-25T17:14:11.145Z,20.03
2019-01-25T17:16:41.438Z,17.67
2019-01-25T17:19:12.038Z,19.03
2019-01-25T17:21:55.683Z,17.87
2019-01-25T17:24:28.227Z,17.80
2019-01-25T17:26:58.779Z,18.23
2019-01-25T17:29:35.027Z,17.90
2019-01-25T17:32:05.081Z,18.73
2019-01-25T17:34:36.973Z,17.47
2019-01-25T17:37:10.590Z,20.47
2019-01-25T17:39:45.329Z,18.50
2019-01-25T17:42:17.408Z,18.73
2019-01-25T17:44:47.429Z,16.03
2019-01-25T17:47:25.762Z,20.30
2019-01-25T17:49:57.945Z,20.37
2019-01-25T17:52:30.595Z,16.40
2019-01-25T17:55:03.435Z,16.03
2019-01-25T17:57:33.173Z,13.97
2019-01-25T18:00:05.647Z,17.20
2019-01-25T18:02:38.491Z,19.10
2019-01-25T18:05:08.887Z,15.23
2019-01-25T18:07:41.094Z,19.60
2019-01-25T18:10:16.324Z,18.10
2019-01-25T18:12:52.367Z,16.93
2019-01-25T18:15:22.172Z,15.90
2019-01-25T18:17:54.196Z,18.80
2019-01-25T18:20:25.452Z,16.90
2019-01-25T18:22:54.937Z,17.93
2019-01-25T18:25:32.411Z,17.97
2019-01-25T18:28:02.469Z,17.17
2019-01-25T18:30:42.261Z,17.30
2019-01-25T18:33:11.443Z,18.27
2019-01-25T18:35:40.898Z,19.23
2019-01-25T18:38:10.300Z,16.70
2019-01-25T18:40:39.846Z,15.17
2019-01-25T18:43:08.999Z,26.30
2019-01-25T18:45:38.590Z,18.07
2019-01-25T18:48:08.454Z,19.57
2019-01-25T18:50:37.898Z,14.27
2019-01-25T18:53:07.738Z,22.13
2019-01-25T18:55:37.381Z,21.93
2019-01-25T18:58:06.942Z,14.43
2019-01-25T19:00:36.223Z,22.70
2019-01-25T19:03:06.116Z,16.00
2019-01-25T19:05:35.919Z,17.03
2019-01-25T19:08:05.339Z,18.57
2019-01-25T19:10:34.590Z,19.60
2019-01-25T19:13:04.108Z,16.37
2019-01-25T19:15:33.394Z,16.63
2019-01-25T19:18:04.368Z,17.90
2019-01-25T19:20:34.473Z,12.87
2019-01-25T19:23:07.666Z,15.73
2019-01-25T19:25:37.095Z,17.23
2019-01-25T19:28:07.113Z,15.87
2019-01-25T19:30:38.993Z,14.73
2019-01-25T19:33:08.487Z,20.83
2019-01-25T19:35:39.297Z,14.77
2019-01-25T19:38:10.037Z,16.57
2019-01-25T19:40:40.618Z,14.47
2019-01-25T19:43:11.051Z,15.53
2019-01-25T19:45:41.174Z,14.23
2019-01-25T19:48:11.167Z,14.17
2019-01-25T19:50:40.221Z,20.93
2019-01-25T19:53:09.278Z,16.80
2019-01-25T19:55:38.770Z,16.03
2019-01-25T19:58:09.895Z,19.40
2019-01-25T20:00:40.562Z,16.20
2019-01-25T20:03:10.008Z,21.93
2019-01-25T20:05:39.674Z,15.10
2019-01-25T20:08:09.310Z,19.23
2019-01-25T20:10:38.666Z,20.27
2019-01-25T20:13:10.402Z,17.83
2019-01-25T20:15:39.548Z,20.90
2019-01-25T20:18:08.880Z,19.77
2019-01-25T20:20:38.110Z,18.87
2019-01-25T20:23:07.885Z,20.17
2019-01-25T20:25:37.126Z,19.47
2019-01-25T20:28:07.661Z,21.63
2019-01-25T20:30:37.064Z,18.83
2019-01-25T20:33:06.440Z,17.70
2019-01-25T20:35:37.983Z,20.27
2019-01-25T20:38:07.205Z,21.87
2019-01-25T20:40:36.419Z,16.53
2019-01-25T20:43:06.215Z,20.57
2019-01-25T20:45:37.502Z,17.70
2019-01-25T20:48:07.418Z,18.10
2019-01-25T20:50:37.217Z,15.03
2019-01-25T20:53:07.860Z,19.93
2019-01-25T20:55:37.143Z,18.47
2019-01-25T20:58:07.762Z,23.53
2019-01-25T21:00:38.756Z,21.73
2019-01-25T21:03:10.553Z,16.33
2019-01-25T21:05:40.101Z,19.13
2019-01-25T21:08:09.425Z,19.23
2019-01-25T21:10:39.120Z,19.37
2019-01-25T21:13:08.946Z,16.33
2019-01-25T21:15:38.217Z,20.37
2019-01-25T21:18:07.924Z,18.43
2019-01-25T21:20:42.039Z,18.73
2019-01-25T21:23:11.440Z,20.30
2019-01-25T21:25:41.031Z,18.37
2019-01-25T21:28:10.359Z,16.17
2019-01-25T21:30:42.205Z,18.20
2019-01-25T21:33:12.265Z,20.87
2019-01-25T21:35:41.538Z,18.87
2019-01-25T21:38:10.885Z,21.40
2019-01-25T21:40:40.091Z,16.10
2019-01-25T21:43:10.288Z,19.00
2019-01-25T21:45:43.250Z,18.57
2019-01-25T21:48:16.257Z,18.73
2019-01-25T21:50:46.382Z,19.93
2019-01-25T21:53:15.797Z,20.07
2019-01-25T21:55:45.220Z,16.90
2019-01-25T21:58:14.739Z,18.57
2019-01-25T22:00:44.110Z,19.60
2019-01-25T22:03:13.501Z,21.30
2019-01-25T22:05:43.321Z,21.23
2019-01-25T22:08:12.457Z,20.03
2019-01-25T22:10:44.510Z,19.50
2019-01-25T22:13:14.019Z,19.97
2019-01-25T22:15:50.500Z,18.30
2019-01-25T22:18:14.563Z,19.47
2019-01-25T22:20:45.607Z,20.27
2019-01-25T22:23:17.012Z,17.20
2019-01-25T22:25:46.457Z,21.13
2019-01-25T22:28:16.021Z,23.20
2019-01-25T22:30:45.069Z,22.57
2019-01-25T22:33:14.657Z,21.20
2019-01-25T22:35:43.828Z,21.13
2019-01-25T22:38:13.111Z,20.67
2019-01-25T22:40:43.010Z,19.57
2019-01-25T22:43:12.374Z,23.70
2019-01-25T22:45:42.092Z,20.63
2019-01-25T22:48:11.985Z,20.53
2019-01-25T22:50:41.132Z,22.07
2019-01-25T22:53:10.582Z,24.80
2019-01-25T22:55:39.919Z,21.83
2019-01-25T22:58:09.466Z,24.17
2019-01-25T23:01:21.447Z,23.30
2019-01-25T23:04:25.971Z,23.83
2019-01-25T23:07:09.553Z,24.17
2019-01-25T23:09:52.973Z,22.67
2019-01-25T23:12:22.609Z,21.30
2019-01-25T23:14:53.149Z,22.03
2019-01-25T23:17:22.916Z,24.47
2019-01-25T23:19:52.488Z,25.67
2019-01-25T23:22:24.613Z,21.07
2019-01-25T23:24:54.142Z,21.30
2019-01-25T23:27:24.883Z,22.63
2019-01-25T23:29:55.201Z,26.90
2019-01-25T23:32:25.880Z,24.63
2019-01-25T23:34:56.188Z,19.30
2019-01-25T23:37:25.509Z,20.10
2019-01-25T23:39:54.564Z,22.07
2019-01-25T23:42:28.150Z,22.63
2019-01-25T23:44:57.511Z,17.57
2019-01-25T23:47:27.005Z,24.90
2019-01-25T23:49:56.232Z,19.13
2019-01-25T23:52:28.762Z,21.60
2019-01-25T23:54:58.331Z,21.93
2019-01-25T23:57:27.696Z,22.53
2019-01-25T23:59:56.874Z,21.20
